createdAt,value
2018-01-27T00:00:39.619Z,1026.47
2018-01-27T00:01:40.340Z,1026.51
2018-01-27T00:02:40.151Z,1026.46
2018-01-27T00:03:40.863Z,1026.53
2018-01-27T00:05:02.159Z,1026.51
2018-01-27T00:06:02.812Z,1026.53
2018-01-27T00:07:01.998Z,1026.50
2018-01-27T00:08:03.007Z,1026.52
2018-01-27T00:09:02.489Z,1026.51
2018-01-27T00:10:01.796Z,1026.51
2018-01-27T00:11:02.122Z,1026.48
2018-01-27T00:12:02.524Z,1026.51
2018-01-27T00:13:02.198Z,1026.51
2018-01-27T00:14:02.807Z,1026.48
2018-01-27T00:15:03.027Z,1026.50
2018-01-27T00:16:02.361Z,1026.51
2018-01-27T00:17:02.285Z,1026.52
2018-01-27T00:18:02.594Z,1026.48
2018-01-27T00:19:01.988Z,1026.50
2018-01-27T00:20:02.681Z,1026.49
2018-01-27T00:21:23.507Z,1026.45
2018-01-27T00:22:23.693Z,1026.53
2018-01-27T00:23:24.120Z,1026.55
2018-01-27T00:24:23.412Z,1026.56
2018-01-27T00:25:23.654Z,1026.55
2018-01-27T00:26:45.677Z,1026.54
2018-01-27T00:27:47.710Z,1026.53
2018-01-27T00:28:46.475Z,1026.56
2018-01-27T00:30:07.371Z,1026.51
2018-01-27T00:31:07.654Z,1026.55
2018-01-27T00:32:29.268Z,1026.48
2018-01-27T00:33:30.081Z,1026.50
2018-01-27T00:34:29.531Z,1026.47
2018-01-27T00:35:30.348Z,1026.49
2018-01-27T00:36:29.966Z,1026.52
2018-01-27T00:37:30.714Z,1026.46
2018-01-27T00:38:29.962Z,1026.50
2018-01-27T00:39:29.463Z,1026.42
2018-01-27T00:40:30.417Z,1026.51
2018-01-27T00:41:30.209Z,1026.49
2018-01-27T00:42:29.724Z,1026.55
2018-01-27T00:43:30.516Z,1026.50
2018-01-27T00:44:30.221Z,1026.50
2018-01-27T00:45:29.966Z,1026.49
2018-01-27T00:46:30.232Z,1026.54
2018-01-27T00:47:29.576Z,1026.53
2018-01-27T00:48:30.252Z,1026.52
2018-01-27T00:49:29.568Z,1026.54
2018-01-27T00:50:29.901Z,1026.55
2018-01-27T00:51:30.536Z,1026.55
2018-01-27T00:52:29.820Z,1026.56
2018-01-27T00:53:30.315Z,1026.56
2018-01-27T00:54:30.250Z,1026.56
2018-01-27T00:55:29.721Z,1026.59
2018-01-27T00:56:30.007Z,1026.54
2018-01-27T00:57:29.714Z,1026.57
2018-01-27T00:58:30.473Z,1026.55
2018-01-27T00:59:30.072Z,1026.54
2018-01-27T01:00:29.776Z,1026.54
2018-01-27T01:01:30.625Z,1026.52
2018-01-27T01:02:29.921Z,1026.57
2018-01-27T01:03:30.067Z,1026.59
2018-01-27T01:04:30.367Z,1026.59
2018-01-27T01:05:30.172Z,1026.55
2018-01-27T01:06:29.894Z,1026.59
2018-01-27T01:07:30.608Z,1026.59
2018-01-27T01:08:29.743Z,1026.61
2018-01-27T01:09:30.419Z,1026.59
2018-01-27T01:10:30.217Z,1026.64
2018-01-27T01:11:29.657Z,1026.64
2018-01-27T01:12:30.456Z,1026.66
2018-01-27T01:13:29.604Z,1026.70
2018-01-27T01:14:50.914Z,1026.69
2018-01-27T01:15:51.598Z,1026.71
2018-01-27T01:16:51.261Z,1026.69
2018-01-27T01:17:51.687Z,1026.76
2018-01-27T01:19:33.669Z,1026.81
2018-01-27T01:20:34.001Z,1026.76
2018-01-27T01:21:34.173Z,1026.84
2018-01-27T01:22:34.533Z,1026.83
2018-01-27T01:23:33.657Z,1026.84
2018-01-27T01:24:55.397Z,1026.89
2018-01-27T01:25:56.019Z,1026.87
2018-01-27T01:26:56.559Z,1026.91
2018-01-27T01:27:56.036Z,1026.87
2018-01-27T01:28:55.929Z,1026.88
2018-01-27T01:30:17.665Z,1026.88
2018-01-27T01:31:18.030Z,1026.86
2018-01-27T01:32:18.821Z,1026.87
2018-01-27T01:33:18.718Z,1026.85
2018-01-27T01:34:18.002Z,1026.89
2018-01-27T01:35:18.800Z,1026.88
2018-01-27T01:36:18.628Z,1026.91
2018-01-27T01:37:18.278Z,1026.94
2018-01-27T01:38:40.165Z,1026.88
2018-01-27T01:39:40.744Z,1026.89
2018-01-27T01:40:40.448Z,1026.87
2018-01-27T01:41:41.126Z,1026.94
2018-01-27T01:42:40.399Z,1026.89
2018-01-27T01:43:40.692Z,1026.94
2018-01-27T01:44:42.078Z,1026.98
2018-01-27T01:45:40.872Z,1026.99
2018-01-27T01:46:40.564Z,1026.95
2018-01-27T01:47:39.981Z,1026.93
2018-01-27T01:48:40.361Z,1026.92
2018-01-27T01:49:40.294Z,1026.93
2018-01-27T01:50:40.846Z,1026.87
2018-01-27T01:51:40.573Z,1026.89
2018-01-27T01:52:39.910Z,1026.89
2018-01-27T01:53:40.267Z,1026.92
2018-01-27T01:54:41.139Z,1026.89
2018-01-27T01:55:40.811Z,1026.92
2018-01-27T01:56:40.302Z,1026.88
2018-01-27T01:57:41.039Z,1026.91
2018-01-27T01:58:40.320Z,1026.94
2018-01-27T01:59:41.114Z,1026.92
2018-01-27T02:00:41.109Z,1026.92
2018-01-27T02:01:40.475Z,1026.95
2018-01-27T02:02:39.797Z,1026.95
2018-01-27T02:04:01.860Z,1026.93
2018-01-27T02:05:02.460Z,1026.89
2018-01-27T02:06:02.321Z,1026.88
2018-01-27T02:07:03.100Z,1026.89
2018-01-27T02:08:02.644Z,1026.84
2018-01-27T02:09:02.193Z,1026.88
2018-01-27T02:10:02.550Z,1026.88
2018-01-27T02:11:02.264Z,1026.88
2018-01-27T02:12:02.663Z,1026.91
2018-01-27T02:13:02.391Z,1026.91
2018-01-27T02:14:02.655Z,1026.93
2018-01-27T02:15:02.383Z,1026.90
2018-01-27T02:16:02.628Z,1026.91
2018-01-27T02:17:02.433Z,1026.94
2018-01-27T02:18:01.927Z,1026.92
2018-01-27T02:19:02.322Z,1026.94
2018-01-27T02:20:03.045Z,1026.92
2018-01-27T02:21:02.618Z,1026.96
2018-01-27T02:22:02.417Z,1026.98
2018-01-27T02:23:02.877Z,1027.00
2018-01-27T02:24:02.414Z,1026.99
2018-01-27T02:25:03.134Z,1026.99
2018-01-27T02:26:02.561Z,1026.94
2018-01-27T02:27:02.296Z,1026.97
2018-01-27T02:28:02.603Z,1026.94
2018-01-27T02:29:02.067Z,1026.95
2018-01-27T02:30:23.708Z,1026.96
2018-01-27T02:31:24.551Z,1026.95
2018-01-27T02:32:23.784Z,1027.01
2018-01-27T02:33:23.883Z,1027.03
2018-01-27T02:34:24.282Z,1027.02
2018-01-27T02:35:23.922Z,1027.00
2018-01-27T02:36:45.474Z,1026.98
2018-01-27T02:37:45.939Z,1026.98
2018-01-27T02:38:46.194Z,1026.98
2018-01-27T02:40:07.102Z,1026.96
2018-01-27T02:41:07.441Z,1026.98
2018-01-27T02:42:08.048Z,1027.03
2018-01-27T02:43:07.693Z,1027.00
2018-01-27T02:44:07.965Z,1026.96
2018-01-27T02:45:07.467Z,1027.01
2018-01-27T02:46:07.821Z,1026.95
2018-01-27T02:47:07.989Z,1026.98
2018-01-27T02:48:07.674Z,1026.96
2018-01-27T02:49:07.910Z,1026.98
2018-01-27T02:50:28.563Z,1027.01
2018-01-27T02:51:49.833Z,1027.02
2018-01-27T02:52:50.428Z,1027.01
2018-01-27T02:53:50.766Z,1027.04
2018-01-27T02:54:50.226Z,1027.09
2018-01-27T02:55:50.859Z,1027.10
2018-01-27T02:56:50.298Z,1027.10
2018-01-27T02:57:50.714Z,1027.13
2018-01-27T02:58:50.817Z,1027.14
2018-01-27T02:59:50.098Z,1027.15
2018-01-27T03:00:50.408Z,1027.13
2018-01-27T03:01:50.811Z,1027.15
2018-01-27T03:02:50.511Z,1027.17
2018-01-27T03:03:50.618Z,1027.20
2018-01-27T03:04:50.100Z,1027.18
2018-01-27T03:05:50.259Z,1027.17
2018-01-27T03:06:50.940Z,1027.21
2018-01-27T03:07:50.238Z,1027.23
2018-01-27T03:08:50.895Z,1027.16
2018-01-27T03:09:50.510Z,1027.22
2018-01-27T03:10:50.385Z,1027.25
2018-01-27T03:11:50.943Z,1027.21
2018-01-27T03:12:50.526Z,1027.20
2018-01-27T03:13:50.670Z,1027.18
2018-01-27T03:14:50.620Z,1027.25
2018-01-27T03:16:11.964Z,1027.22
2018-01-27T03:17:34.897Z,1027.24
2018-01-27T03:18:34.544Z,1027.25
2018-01-27T03:19:33.710Z,1027.25
2018-01-27T03:20:34.162Z,1027.26
2018-01-27T03:21:34.463Z,1027.25
2018-01-27T03:22:34.931Z,1027.23
2018-01-27T03:23:34.684Z,1027.24
2018-01-27T03:24:34.018Z,1027.26
2018-01-27T03:25:34.437Z,1027.27
2018-01-27T03:26:34.568Z,1027.28
2018-01-27T03:27:34.648Z,1027.31
2018-01-27T03:28:34.275Z,1027.32
2018-01-27T03:29:34.520Z,1027.36
2018-01-27T03:30:35.050Z,1027.10
2018-01-27T03:31:34.753Z,1027.40
2018-01-27T03:32:34.383Z,1027.33
2018-01-27T03:33:33.780Z,1027.33
2018-01-27T03:34:34.521Z,1027.36
2018-01-27T03:35:34.734Z,1027.36
2018-01-27T03:36:34.459Z,1027.36
2018-01-27T03:37:34.245Z,1027.35
2018-01-27T03:38:34.921Z,1027.40
2018-01-27T03:39:35.336Z,1027.43
2018-01-27T03:40:34.447Z,1027.44
2018-01-27T03:41:33.640Z,1027.43
2018-01-27T03:42:33.920Z,1027.48
2018-01-27T03:43:34.281Z,1027.49
2018-01-27T03:44:35.518Z,1027.48
2018-01-27T03:45:33.846Z,1027.47
2018-01-27T03:46:34.034Z,1027.50
2018-01-27T03:47:34.917Z,1027.55
2018-01-27T03:48:34.475Z,1027.52
2018-01-27T03:49:34.590Z,1027.55
2018-01-27T03:50:34.270Z,1027.54
2018-01-27T03:51:34.651Z,1027.56
2018-01-27T03:52:33.911Z,1027.57
2018-01-27T03:53:55.048Z,1027.60
2018-01-27T03:55:17.244Z,1027.61
2018-01-27T03:56:22.342Z,1027.56
2018-01-27T03:57:18.238Z,1027.61
2018-01-27T03:58:17.482Z,1027.62
2018-01-27T03:59:16.840Z,1027.65
2018-01-27T04:00:17.407Z,1027.65
2018-01-27T04:01:17.995Z,1027.66
2018-01-27T04:02:17.302Z,1027.68
2018-01-27T04:03:18.031Z,1027.68
2018-01-27T04:04:17.229Z,1027.71
2018-01-27T04:05:18.007Z,1027.72
2018-01-27T04:06:17.057Z,1027.76
2018-01-27T04:07:17.546Z,1027.72
2018-01-27T04:08:38.178Z,1027.70
2018-01-27T04:09:38.320Z,1027.69
2018-01-27T04:10:38.714Z,1027.72
2018-01-27T04:11:39.412Z,1027.75
2018-01-27T04:12:38.740Z,1027.77
2018-01-27T04:13:39.127Z,1027.78
2018-01-27T04:14:38.369Z,1027.82
2018-01-27T04:15:38.665Z,1027.83
2018-01-27T04:16:39.291Z,1027.81
2018-01-27T04:17:39.142Z,1027.80
2018-01-27T04:18:38.368Z,1027.82
2018-01-27T04:20:00.570Z,1027.83
2018-01-27T04:21:00.752Z,1027.84
2018-01-27T04:22:01.004Z,1027.85
2018-01-27T04:23:01.755Z,1027.87
2018-01-27T04:24:22.334Z,1027.88
2018-01-27T04:25:22.978Z,1027.93
2018-01-27T04:26:22.627Z,1027.94
2018-01-27T04:27:23.140Z,1027.94
2018-01-27T04:28:22.660Z,1027.93
2018-01-27T04:29:22.197Z,1028.02
2018-01-27T04:30:22.557Z,1028.04
2018-01-27T04:31:23.136Z,1028.05
2018-01-27T04:32:22.395Z,1028.09
2018-01-27T04:33:22.607Z,1028.14
2018-01-27T04:34:22.828Z,1028.11
2018-01-27T04:35:22.134Z,1028.13
2018-01-27T04:36:22.713Z,1028.15
2018-01-27T04:37:22.173Z,1028.15
2018-01-27T04:38:22.843Z,1028.19
2018-01-27T04:39:22.484Z,1028.23
2018-01-27T04:40:22.746Z,1028.24
2018-01-27T04:41:23.240Z,1028.23
2018-01-27T04:42:22.893Z,1028.27
2018-01-27T04:43:22.149Z,1028.25
2018-01-27T04:44:22.225Z,1028.27
2018-01-27T04:45:22.922Z,1028.23
2018-01-27T04:46:22.092Z,1028.25
2018-01-27T04:47:22.353Z,1028.19
2018-01-27T04:48:22.760Z,1028.21
2018-01-27T04:49:22.019Z,1028.27
2018-01-27T04:50:22.200Z,1028.28
2018-01-27T04:51:22.946Z,1028.27
2018-01-27T04:52:22.775Z,1028.25
2018-01-27T04:53:23.290Z,1028.32
2018-01-27T04:54:22.639Z,1028.29
2018-01-27T04:55:22.975Z,1028.30
2018-01-27T04:56:22.790Z,1028.29
2018-01-27T04:57:22.103Z,1028.32
2018-01-27T04:58:22.339Z,1028.30
2018-01-27T04:59:22.606Z,1028.34
2018-01-27T05:00:23.074Z,1028.33
2018-01-27T05:01:22.163Z,1028.35
2018-01-27T05:02:22.729Z,1028.40
2018-01-27T05:03:22.533Z,1028.36
2018-01-27T05:04:22.759Z,1028.34
2018-01-27T05:05:22.134Z,1028.36
2018-01-27T05:06:22.288Z,1028.38
2018-01-27T05:07:22.541Z,1028.37
2018-01-27T05:08:23.104Z,1028.37
2018-01-27T05:09:22.850Z,1028.36
2018-01-27T05:10:22.617Z,1028.36
2018-01-27T05:11:23.410Z,1028.38
2018-01-27T05:12:22.718Z,1028.42
2018-01-27T05:13:23.280Z,1028.39
2018-01-27T05:14:22.553Z,1028.42
2018-01-27T05:15:22.945Z,1028.39
2018-01-27T05:16:22.260Z,1028.45
2018-01-27T05:17:22.625Z,1028.48
2018-01-27T05:18:22.856Z,1028.47
2018-01-27T05:19:22.455Z,1028.46
2018-01-27T05:20:23.000Z,1028.50
2018-01-27T05:21:22.226Z,1028.51
2018-01-27T05:22:22.974Z,1028.55
2018-01-27T05:23:22.374Z,1028.53
2018-01-27T05:24:22.676Z,1028.55
2018-01-27T05:25:22.006Z,1028.56
2018-01-27T05:26:22.594Z,1028.57
2018-01-27T05:27:22.970Z,1028.57
2018-01-27T05:28:22.540Z,1028.54
2018-01-27T05:29:23.001Z,1028.56
2018-01-27T05:30:44.049Z,1028.57
2018-01-27T05:31:44.610Z,1028.58
2018-01-27T05:32:44.280Z,1028.61
2018-01-27T05:33:43.607Z,1028.60
2018-01-27T05:34:43.663Z,1028.61
2018-01-27T05:35:44.285Z,1028.60
2018-01-27T05:36:44.975Z,1028.61
2018-01-27T05:38:05.651Z,1028.64
2018-01-27T05:39:05.867Z,1028.68
2018-01-27T05:40:29.102Z,1028.64
2018-01-27T05:41:29.310Z,1028.64
2018-01-27T05:42:29.648Z,1028.70
2018-01-27T05:43:29.460Z,1028.68
2018-01-27T05:44:29.293Z,1028.69
2018-01-27T05:45:55.417Z,1028.74
2018-01-27T05:46:52.054Z,1028.75
2018-01-27T05:48:12.812Z,1028.76
2018-01-27T05:49:13.092Z,1028.75
2018-01-27T05:50:13.666Z,1028.76
2018-01-27T05:51:13.933Z,1028.79
2018-01-27T05:52:13.387Z,1028.82
2018-01-27T05:53:16.246Z,1028.88
2018-01-27T05:54:13.991Z,1028.88
2018-01-27T05:55:13.296Z,1028.88
2018-01-27T05:56:13.859Z,1028.93
2018-01-27T05:57:13.097Z,1028.94
2018-01-27T05:58:13.872Z,1028.90
2018-01-27T05:59:34.705Z,1028.94
2018-01-27T06:00:34.983Z,1028.91
2018-01-27T06:01:37.978Z,1028.94
2018-01-27T06:02:35.628Z,1028.96
2018-01-27T06:03:35.051Z,1028.95
2018-01-27T06:04:34.311Z,1028.97
2018-01-27T06:05:34.455Z,1028.95
2018-01-27T06:06:56.438Z,1028.98
2018-01-27T06:07:57.314Z,1028.95
2018-01-27T06:08:57.043Z,1028.99
2018-01-27T06:09:56.696Z,1028.97
2018-01-27T06:10:57.060Z,1029.00
2018-01-27T06:11:56.494Z,1029.04
2018-01-27T06:12:56.885Z,1029.01
2018-01-27T06:13:56.975Z,1029.08
2018-01-27T06:14:56.372Z,1029.06
2018-01-27T06:15:56.722Z,1029.08
2018-01-27T06:16:57.581Z,1029.06
2018-01-27T06:18:18.650Z,1029.07
2018-01-27T06:19:40.408Z,1029.08
2018-01-27T06:20:41.219Z,1029.07
2018-01-27T06:21:40.621Z,1029.02
2018-01-27T06:22:40.441Z,1029.05
2018-01-27T06:23:42.166Z,1029.04
2018-01-27T06:24:40.554Z,1029.03
2018-01-27T06:25:41.356Z,1029.00
2018-01-27T06:26:41.317Z,1029.01
2018-01-27T06:27:40.929Z,1029.01
2018-01-27T06:28:40.127Z,1029.02
2018-01-27T06:29:40.594Z,1029.03
2018-01-27T06:30:40.572Z,1028.99
2018-01-27T06:31:41.397Z,1029.01
2018-01-27T06:32:40.653Z,1029.02
2018-01-27T06:33:40.929Z,1029.01
2018-01-27T06:34:40.184Z,1029.04
2018-01-27T06:35:40.646Z,1029.11
2018-01-27T06:36:41.020Z,1029.15
2018-01-27T06:38:02.253Z,1029.11
2018-01-27T06:39:02.522Z,1029.15
2018-01-27T06:40:23.470Z,1029.12
2018-01-27T06:41:23.755Z,1029.09
2018-01-27T06:42:24.444Z,1029.10
2018-01-27T06:43:44.628Z,1029.17
2018-01-27T06:44:44.897Z,1029.16
2018-01-27T06:45:45.407Z,1029.17
2018-01-27T06:46:45.179Z,1029.22
2018-01-27T06:47:45.422Z,1029.18
2018-01-27T06:48:45.809Z,1029.21
2018-01-27T06:49:45.284Z,1029.21
2018-01-27T06:50:45.862Z,1029.21
2018-01-27T06:51:45.612Z,1029.29
2018-01-27T06:52:45.108Z,1029.31
2018-01-27T06:53:45.707Z,1029.33
2018-01-27T06:54:45.134Z,1029.38
2018-01-27T06:55:45.884Z,1029.39
2018-01-27T06:56:45.581Z,1029.40
2018-01-27T06:57:45.244Z,1029.44
2018-01-27T06:58:45.697Z,1029.49
2018-01-27T07:00:29.109Z,1029.52
2018-01-27T07:01:29.743Z,1029.55
2018-01-27T07:02:29.332Z,1029.65
2018-01-27T07:03:30.107Z,1029.62
2018-01-27T07:04:29.923Z,1029.64
2018-01-27T07:05:29.403Z,1029.67
2018-01-27T07:06:29.829Z,1029.65
2018-01-27T07:07:29.357Z,1029.64
2018-01-27T07:08:28.778Z,1029.63
2018-01-27T07:09:29.536Z,1029.61
2018-01-27T07:10:29.240Z,1029.59
2018-01-27T07:11:29.931Z,1029.60
2018-01-27T07:12:29.445Z,1029.55
2018-01-27T07:13:29.236Z,1029.56
2018-01-27T07:14:29.533Z,1029.60
2018-01-27T07:15:29.145Z,1029.61
2018-01-27T07:16:29.586Z,1029.66
2018-01-27T07:17:29.337Z,1029.61
2018-01-27T07:18:28.785Z,1029.63
2018-01-27T07:19:29.204Z,1029.67
2018-01-27T07:20:30.411Z,1029.68
2018-01-27T07:21:53.711Z,1029.65
2018-01-27T07:22:52.171Z,1029.63
2018-01-27T07:23:51.909Z,1029.66
2018-01-27T07:24:51.959Z,1029.73
2018-01-27T07:25:51.922Z,1029.67
2018-01-27T07:26:51.865Z,1029.71
2018-01-27T07:27:51.639Z,1029.76
2018-01-27T07:28:52.542Z,1029.75
2018-01-27T07:29:52.108Z,1029.78
2018-01-27T07:30:52.160Z,1029.81
2018-01-27T07:31:52.156Z,1029.78
2018-01-27T07:33:35.157Z,1029.85
2018-01-27T07:34:36.112Z,1029.85
2018-01-27T07:35:35.647Z,1029.89
2018-01-27T07:36:35.227Z,1029.89
2018-01-27T07:37:35.698Z,1029.87
2018-01-27T07:38:35.094Z,1029.86
2018-01-27T07:39:35.874Z,1029.89
2018-01-27T07:40:35.459Z,1029.90
2018-01-27T07:41:36.350Z,1029.94
2018-01-27T07:42:36.177Z,1029.89
2018-01-27T07:43:35.723Z,1029.90
2018-01-27T07:44:57.581Z,1029.87
2018-01-27T07:45:57.411Z,1029.84
2018-01-27T07:46:58.359Z,1029.87
2018-01-27T07:47:58.130Z,1029.89
2018-01-27T07:48:57.899Z,1029.94
2018-01-27T07:49:58.010Z,1029.99
2018-01-27T07:50:57.890Z,1029.99
2018-01-27T07:51:57.431Z,1029.97
2018-01-27T07:52:57.888Z,1029.98
2018-01-27T07:53:57.539Z,1029.97
2018-01-27T07:54:57.614Z,1029.97
2018-01-27T07:56:18.965Z,1030.00
2018-01-27T07:57:21.048Z,1029.99
2018-01-27T07:58:20.028Z,1029.97
2018-01-27T08:00:03.169Z,1030.00
2018-01-27T08:01:03.571Z,1030.02
2018-01-27T08:02:02.830Z,1029.99
2018-01-27T08:03:03.697Z,1030.08
2018-01-27T08:04:24.392Z,1030.09
2018-01-27T08:05:46.678Z,1030.09
2018-01-27T08:07:08.834Z,1030.08
2018-01-27T08:08:09.618Z,1030.10
2018-01-27T08:09:31.158Z,1030.11
2018-01-27T08:10:31.431Z,1030.16
2018-01-27T08:11:30.845Z,1030.11
2018-01-27T08:12:31.209Z,1030.17
2018-01-27T08:13:31.552Z,1030.13
2018-01-27T08:14:31.036Z,1030.17
2018-01-27T08:15:31.590Z,1030.17
2018-01-27T08:16:31.132Z,1030.19
2018-01-27T08:17:31.707Z,1030.19
2018-01-27T08:18:53.148Z,1030.19
2018-01-27T08:19:54.216Z,1030.12
2018-01-27T08:20:54.032Z,1030.08
2018-01-27T08:21:53.881Z,1030.06
2018-01-27T08:22:53.739Z,1030.07
2018-01-27T08:23:54.143Z,1030.07
2018-01-27T08:24:54.964Z,1030.11
2018-01-27T08:25:53.873Z,1030.16
2018-01-27T08:26:53.799Z,1030.14
2018-01-27T08:27:53.724Z,1030.18
2018-01-27T08:28:53.201Z,1030.20
2018-01-27T08:29:54.155Z,1030.20
2018-01-27T08:30:54.087Z,1030.17
2018-01-27T08:31:55.014Z,1030.17
2018-01-27T08:32:53.582Z,1030.14
2018-01-27T08:33:54.358Z,1030.14
2018-01-27T08:34:54.323Z,1030.10
2018-01-27T08:35:54.411Z,1030.12
2018-01-27T08:36:53.866Z,1030.10
2018-01-27T08:37:53.195Z,1030.10
2018-01-27T08:38:53.844Z,1030.15
2018-01-27T08:39:53.195Z,1030.19
2018-01-27T08:40:53.689Z,1030.16
2018-01-27T08:41:54.110Z,1030.16
2018-01-27T08:42:54.148Z,1030.17
2018-01-27T08:43:54.306Z,1030.16
2018-01-27T08:44:53.930Z,1030.14
2018-01-27T08:45:53.156Z,1030.17
2018-01-27T08:46:53.462Z,1030.16
2018-01-27T08:47:54.079Z,1030.22
2018-01-27T08:48:53.597Z,1030.20
2018-01-27T08:49:54.247Z,1030.19
2018-01-27T08:50:53.688Z,1030.18
2018-01-27T08:51:53.986Z,1030.15
2018-01-27T08:52:53.577Z,1030.18
2018-01-27T08:53:54.062Z,1030.22
2018-01-27T08:54:54.087Z,1030.25
2018-01-27T08:55:53.426Z,1030.29
2018-01-27T08:57:15.667Z,1030.31
2018-01-27T08:58:16.048Z,1030.31
2018-01-27T08:59:16.644Z,1030.34
2018-01-27T09:00:16.118Z,1030.35
2018-01-27T09:01:16.489Z,1030.29
2018-01-27T09:02:16.183Z,1030.31
2018-01-27T09:03:16.787Z,1030.28
2018-01-27T09:04:16.397Z,1030.25
2018-01-27T09:05:16.266Z,1030.25
2018-01-27T09:06:17.187Z,1030.22
2018-01-27T09:07:16.587Z,1030.24
2018-01-27T09:08:37.697Z,1030.24
2018-01-27T09:09:38.517Z,1030.22
2018-01-27T09:10:38.555Z,1030.25
2018-01-27T09:11:38.065Z,1030.22
2018-01-27T09:12:39.003Z,1030.23
2018-01-27T09:13:38.261Z,1030.20
2018-01-27T09:14:39.086Z,1030.18
2018-01-27T09:15:38.813Z,1030.21
2018-01-27T09:16:38.526Z,1030.24
2018-01-27T09:17:37.932Z,1030.31
2018-01-27T09:18:38.696Z,1030.30
2018-01-27T09:19:38.732Z,1030.24
2018-01-27T09:20:38.705Z,1030.25
2018-01-27T09:21:38.466Z,1030.21
2018-01-27T09:22:38.291Z,1030.19
2018-01-27T09:23:38.168Z,1030.19
2018-01-27T09:24:39.120Z,1030.19
2018-01-27T09:25:38.773Z,1030.21
2018-01-27T09:26:38.412Z,1030.21
2018-01-27T09:27:38.120Z,1030.23
2018-01-27T09:28:38.963Z,1030.17
2018-01-27T09:29:38.849Z,1030.13
2018-01-27T09:30:38.388Z,1030.14
2018-01-27T09:31:37.967Z,1030.06
2018-01-27T09:32:38.832Z,1030.07
2018-01-27T09:33:38.839Z,1030.04
2018-01-27T09:34:38.824Z,1030.01
2018-01-27T09:35:38.312Z,1030.01
2018-01-27T09:36:37.846Z,1030.06
2018-01-27T09:37:38.332Z,1030.04
2018-01-27T09:38:37.969Z,1030.02
2018-01-27T09:39:39.478Z,1029.98
2018-01-27T09:40:38.263Z,1029.98
2018-01-27T09:41:37.952Z,1029.97
2018-01-27T09:42:38.502Z,1029.94
2018-01-27T09:43:37.907Z,1029.98
2018-01-27T09:44:38.847Z,1029.99
2018-01-27T09:45:38.740Z,1030.01
2018-01-27T09:46:38.811Z,1029.98
2018-01-27T09:47:38.548Z,1029.94
2018-01-27T09:48:59.891Z,1029.99
2018-01-27T09:50:00.410Z,1029.99
2018-01-27T09:51:00.289Z,1030.04
2018-01-27T09:52:00.196Z,1030.08
2018-01-27T09:52:59.762Z,1030.02
2018-01-27T09:54:21.890Z,1030.00
2018-01-27T09:55:22.538Z,1030.02
2018-01-27T09:56:22.477Z,1029.99
2018-01-27T09:57:22.094Z,1030.02
2018-01-27T09:58:22.938Z,1030.06
2018-01-27T09:59:22.522Z,1030.10
2018-01-27T10:00:22.205Z,1030.14
2018-01-27T10:01:21.652Z,1030.18
2018-01-27T10:02:22.631Z,1030.18
2018-01-27T10:03:22.440Z,1030.22
2018-01-27T10:04:22.145Z,1030.25
2018-01-27T10:05:21.580Z,1030.26
2018-01-27T10:06:22.082Z,1030.24
2018-01-27T10:07:21.930Z,1030.30
2018-01-27T10:08:22.492Z,1030.27
2018-01-27T10:09:22.038Z,1030.26
2018-01-27T10:10:22.162Z,1030.23
2018-01-27T10:11:21.804Z,1030.17
2018-01-27T10:12:22.189Z,1030.18
2018-01-27T10:13:21.525Z,1030.19
2018-01-27T10:14:22.347Z,1030.21
2018-01-27T10:15:21.977Z,1030.31
2018-01-27T10:16:22.918Z,1030.23
2018-01-27T10:17:23.081Z,1030.19
2018-01-27T10:18:21.637Z,1030.21
2018-01-27T10:19:22.641Z,1030.18
2018-01-27T10:20:22.636Z,1030.27
2018-01-27T10:21:22.391Z,1030.20
2018-01-27T10:22:21.832Z,1030.24
2018-01-27T10:23:43.780Z,1030.23
2018-01-27T10:25:06.096Z,1030.27
2018-01-27T10:26:06.993Z,1030.23
2018-01-27T10:27:06.522Z,1030.24
2018-01-27T10:28:06.341Z,1030.30
2018-01-27T10:29:06.401Z,1030.31
2018-01-27T10:30:07.029Z,1030.33
2018-01-27T10:31:06.894Z,1030.36
2018-01-27T10:32:06.852Z,1030.31
2018-01-27T10:33:06.824Z,1030.38
2018-01-27T10:34:06.492Z,1030.35
2018-01-27T10:35:06.463Z,1030.32
2018-01-27T10:36:06.017Z,1030.34
2018-01-27T10:37:06.315Z,1030.35
2018-01-27T10:38:05.549Z,1030.31
2018-01-27T10:39:27.555Z,1030.33
2018-01-27T10:40:48.334Z,1030.27
2018-01-27T10:41:49.224Z,1030.25
2018-01-27T10:42:48.925Z,1030.29
2018-01-27T10:43:48.446Z,1030.27
2018-01-27T10:44:49.249Z,1030.33
2018-01-27T10:45:49.250Z,1030.34
2018-01-27T10:46:49.427Z,1030.36
2018-01-27T10:47:49.071Z,1030.31
2018-01-27T10:48:48.666Z,1030.32
2018-01-27T10:49:48.546Z,1030.30
2018-01-27T10:50:48.180Z,1030.30
2018-01-27T10:51:49.258Z,1030.33
2018-01-27T10:52:48.586Z,1030.39
2018-01-27T10:53:49.102Z,1030.42
2018-01-27T10:54:48.726Z,1030.38
2018-01-27T10:55:50.245Z,1030.44
2018-01-27T10:56:49.186Z,1030.48
2018-01-27T10:57:48.769Z,1030.49
2018-01-27T10:58:48.292Z,1030.46
2018-01-27T10:59:48.897Z,1030.45
2018-01-27T11:00:49.117Z,1030.43
2018-01-27T11:02:09.835Z,1030.43
2018-01-27T11:03:11.062Z,1030.40
2018-01-27T11:04:11.034Z,1030.40
2018-01-27T11:05:33.066Z,1030.41
2018-01-27T11:06:34.080Z,1030.43
2018-01-27T11:07:34.204Z,1030.42
2018-01-27T11:08:55.706Z,1030.36
2018-01-27T11:09:56.369Z,1030.37
2018-01-27T11:11:17.333Z,1030.29
2018-01-27T11:12:18.300Z,1030.25
2018-01-27T11:13:17.658Z,1030.29
2018-01-27T11:14:18.280Z,1030.31
2018-01-27T11:15:18.228Z,1030.31
2018-01-27T11:16:18.218Z,1030.35
2018-01-27T11:17:17.558Z,1030.29
2018-01-27T11:18:18.324Z,1030.34
2018-01-27T11:19:39.763Z,1030.37
2018-01-27T11:20:40.792Z,1030.29
2018-01-27T11:22:02.100Z,1030.25
2018-01-27T11:23:02.964Z,1030.29
2018-01-27T11:24:03.997Z,1030.29
2018-01-27T11:25:24.194Z,1030.30
2018-01-27T11:26:24.574Z,1030.28
2018-01-27T11:27:47.067Z,1030.32
2018-01-27T11:28:48.245Z,1030.33
2018-01-27T11:29:46.709Z,1030.44
2018-01-27T11:30:47.354Z,1030.36
2018-01-27T11:31:46.848Z,1030.36
2018-01-27T11:32:47.318Z,1030.31
2018-01-27T11:33:47.167Z,1030.31
2018-01-27T11:34:46.775Z,1030.30
2018-01-27T11:35:47.555Z,1030.30
2018-01-27T11:36:48.432Z,1030.32
2018-01-27T11:37:47.739Z,1030.29
2018-01-27T11:38:47.386Z,1030.33
2018-01-27T11:39:47.143Z,1030.31
2018-01-27T11:40:46.584Z,1030.35
2018-01-27T11:41:47.149Z,1030.28
2018-01-27T11:42:47.218Z,1030.29
2018-01-27T11:43:47.344Z,1030.23
2018-01-27T11:44:46.947Z,1030.23
2018-01-27T11:45:46.627Z,1030.24
2018-01-27T11:46:47.147Z,1030.24
2018-01-27T11:47:47.138Z,1030.24
2018-01-27T11:48:46.708Z,1030.19
2018-01-27T11:49:47.453Z,1030.25
2018-01-27T11:51:09.139Z,1030.22
2018-01-27T11:52:08.496Z,1030.19
2018-01-27T11:53:09.424Z,1030.19
2018-01-27T11:54:09.070Z,1030.18
2018-01-27T11:55:08.726Z,1030.13
2018-01-27T11:56:09.253Z,1030.15
2018-01-27T11:57:08.942Z,1030.06
2018-01-27T11:58:09.628Z,1030.11
2018-01-27T11:59:09.587Z,1030.05
2018-01-27T12:00:30.410Z,1030.06
2018-01-27T12:01:52.248Z,1029.96
2018-01-27T12:02:53.042Z,1029.96
2018-01-27T12:03:53.334Z,1029.97
2018-01-27T12:04:52.650Z,1029.95
2018-01-27T12:06:14.305Z,1029.98
2018-01-27T12:07:14.007Z,1029.98
2018-01-27T12:08:15.042Z,1029.91
2018-01-27T12:09:14.870Z,1029.87
2018-01-27T12:10:37.616Z,1029.86
2018-01-27T12:11:39.156Z,1029.84
2018-01-27T12:12:37.815Z,1029.88
2018-01-27T12:13:38.987Z,1029.86
2018-01-27T12:14:38.009Z,1029.88
2018-01-27T12:15:38.942Z,1029.86
2018-01-27T12:17:00.282Z,1029.85
2018-01-27T12:18:00.900Z,1029.87
2018-01-27T12:19:01.143Z,1029.88
2018-01-27T12:20:22.559Z,1029.91
2018-01-27T12:21:23.121Z,1029.86
2018-01-27T12:22:43.986Z,1029.94
2018-01-27T12:23:44.984Z,1029.87
2018-01-27T12:24:44.394Z,1029.89
2018-01-27T12:25:44.534Z,1029.84
2018-01-27T12:26:44.024Z,1029.87
2018-01-27T12:27:45.117Z,1029.86
2018-01-27T12:28:44.616Z,1029.82
2018-01-27T12:29:44.517Z,1029.75
2018-01-27T12:30:44.541Z,1029.81
2018-01-27T12:31:45.059Z,1029.75
2018-01-27T12:32:45.092Z,1029.70